sensor_id;sensor_type;location;lat;lon;timestamp;pressure;altitude;pressure_sealevel;temperature;humidity
53940;BME280;39850;43.324;21.916;2022-09-20T11:21:10;994.0;;;18.1;47.0
53940;BME280;39850;43.324;21.916;2022-09-20T11:26:09;994.0;;;18.1;47.0
53940;BME280;39850;43.324;21.916;2022-09-20T11:31:21;994.0;;;17.6;48.0
53940;BME280;39850;43.324;21.916;2022-09-20T11:36:33;994.0;;;17.6;48.0
53940;BME280;39850;43.324;21.916;2022-09-20T11:41:30;994.0;;;17.6;48.0
53940;BME280;39850;43.324;21.916;2022-09-20T11:46:30;994.0;;;17.2;49.0
53940;BME280;39850;43.324;21.916;2022-09-20T11:54:52;994.0;;;17.2;49.0
53940;BME280;39850;43.324;21.916;2022-09-20T12:30:20;993.0;;;17.3;47.0
53940;BME280;39850;43.324;21.916;2022-09-20T12:34:58;993.0;;;17.3;47.0
53940;BME280;39850;43.324;21.916;2022-09-20T12:39:51;993.0;;;16.8;47.0
53940;BME280;39850;43.324;21.916;2022-09-20T12:44:40;993.0;;;16.8;47.0
53940;BME280;39850;43.324;21.916;2022-09-20T12:49:41;993.0;;;16.8;48.0
53940;BME280;39850;43.324;21.916;2022-09-20T12:54:24;993.0;;;16.8;48.0
53940;BME280;39850;43.324;21.916;2022-09-20T12:59:23;993.0;;;16.6;48.0
53940;BME280;39850;43.324;21.916;2022-09-20T13:05:39;993.0;;;16.6;48.0
53940;BME280;39850;43.324;21.916;2022-09-20T13:10:56;993.0;;;16.8;48.0
53940;BME280;39850;43.324;21.916;2022-09-20T13:15:56;993.0;;;16.8;48.0
53940;BME280;39850;43.324;21.916;2022-09-20T13:49:19;993.0;;;16.2;50.0
53940;BME280;39850;43.324;21.916;2022-09-20T13:54:32;993.0;;;16.2;50.0
53940;BME280;39850;43.324;21.916;2022-09-20T13:59:15;993.0;;;16.3;50.0
53940;BME280;39850;43.324;21.916;2022-09-20T14:04:07;993.0;;;16.3;50.0
53940;BME280;39850;43.324;21.916;2022-09-20T14:08:52;993.0;;;16.2;50.0
53940;BME280;39850;43.324;21.916;2022-09-20T14:13:47;993.0;;;16.2;50.0
53940;BME280;39850;43.324;21.916;2022-09-20T14:18:25;993.0;;;16.3;51.0
53940;BME280;39850;43.324;21.916;2022-09-20T14:23:02;993.0;;;16.3;51.0
53940;BME280;39850;43.324;21.916;2022-09-20T14:27:40;993.0;;;16.2;51.0
53940;BME280;39850;43.324;21.916;2022-09-20T14:32:52;993.0;;;16.2;51.0
53940;BME280;39850;43.324;21.916;2022-09-20T15:11:33;992.0;;;15.3;53.0
53940;BME280;39850;43.324;21.916;2022-09-20T15:16:18;992.0;;;15.3;53.0
53940;BME280;39850;43.324;21.916;2022-09-20T15:20:55;992.0;;;15.3;53.0
53940;BME280;39850;43.324;21.916;2022-09-20T15:25:32;992.0;;;15.3;53.0
53940;BME280;39850;43.324;21.916;2022-09-20T15:30:17;992.0;;;15.3;53.0
53940;BME280;39850;43.324;21.916;2022-09-20T15:34:55;992.0;;;15.3;53.0
53940;BME280;39850;43.324;21.916;2022-09-20T15:39:31;992.0;;;15.3;54.0
53940;BME280;39850;43.324;21.916;2022-09-20T15:44:08;992.0;;;15.3;54.0
53940;BME280;39850;43.324;21.916;2022-09-20T15:48:46;992.0;;;15.3;54.0
53940;BME280;39850;43.324;21.916;2022-09-20T15:53:23;992.0;;;15.3;54.0
53940;BME280;39850;43.324;21.916;2022-09-20T16:30:32;992.0;;;15.5;51.0
53940;BME280;39850;43.324;21.916;2022-09-20T16:35:09;992.0;;;15.5;51.0
53940;BME280;39850;43.324;21.916;2022-09-20T16:39:47;992.0;;;15.5;52.0
53940;BME280;39850;43.324;21.916;2022-09-20T16:44:24;992.0;;;15.5;52.0
53940;BME280;39850;43.324;21.916;2022-09-20T16:49:04;992.0;;;15.5;52.0
53940;BME280;39850;43.324;21.916;2022-09-20T16:53:42;992.0;;;15.5;52.0
53940;BME280;39850;43.324;21.916;2022-09-20T16:58:19;992.0;;;15.5;53.0
53940;BME280;39850;43.324;21.916;2022-09-20T17:02:55;992.0;;;15.5;53.0
53940;BME280;39850;43.324;21.916;2022-09-20T17:07:32;992.0;;;15.5;53.0
53940;BME280;39850;43.324;21.916;2022-09-20T17:12:09;992.0;;;15.5;53.0
53940;BME280;39850;43.324;21.916;2022-09-20T17:16:48;992.0;;;15.5;53.0
53940;BME280;39850;43.324;21.916;2022-09-20T17:49:23;993.0;;;14.6;63.0
53940;BME280;39850;43.324;21.916;2022-09-20T17:54:01;993.0;;;14.6;63.0
53940;BME280;39850;43.324;21.916;2022-09-20T17:58:41;993.0;;;14.6;63.0
53940;BME280;39850;43.324;21.916;2022-09-20T18:03:18;993.0;;;14.6;63.0
53940;BME280;39850;43.324;21.916;2022-09-20T18:07:54;993.0;;;13.9;64.0
53940;BME280;39850;43.324;21.916;2022-09-20T18:12:31;993.0;;;13.9;64.0
53940;BME280;39850;43.324;21.916;2022-09-20T18:17:08;993.0;;;13.9;64.0
53940;BME280;39850;43.324;21.916;2022-09-20T18:21:44;993.0;;;13.2;64.0
53940;BME280;39850;43.324;21.916;2022-09-20T18:26:29;993.0;;;13.2;64.0
53940;BME280;39850;43.324;21.916;2022-09-20T18:31:07;993.0;;;13.2;64.0
53940;BME280;39850;43.324;21.916;2022-09-20T18:35:43;993.0;;;13.2;64.0
53940;BME280;39850;43.324;21.916;2022-09-20T19:10:07;994.0;;;12.3;71.0
53940;BME280;39850;43.324;21.916;2022-09-20T19:16:16;994.0;;;12.3;71.0
53940;BME280;39850;43.324;21.916;2022-09-20T19:21:42;994.0;;;12.0;72.0
53940;BME280;39850;43.324;21.916;2022-09-20T19:26:33;994.0;;;12.0;72.0
53940;BME280;39850;43.324;21.916;2022-09-20T19:31:29;994.0;;;11.7;72.0
53940;BME280;39850;43.324;21.916;2022-09-20T19:36:12;994.0;;;11.7;72.0
53940;BME280;39850;43.324;21.916;2022-09-20T19:41:51;994.0;;;11.6;72.0
53940;BME280;39850;43.324;21.916;2022-09-20T19:47:31;994.0;;;11.6;72.0
53940;BME280;39850;43.324;21.916;2022-09-20T19:52:17;994.0;;;11.7;73.0
53940;BME280;39850;43.324;21.916;2022-09-20T19:57:06;994.0;;;11.7;73.0
53940;BME280;39850;43.324;21.916;2022-09-20T20:28:38;994.0;;;10.7;76.0
53940;BME280;39850;43.324;21.916;2022-09-20T20:33:17;994.0;;;10.7;76.0
53940;BME280;39850;43.324;21.916;2022-09-20T20:37:54;994.0;;;10.7;76.0
53940;BME280;39850;43.324;21.916;2022-09-20T20:42:31;994.0;;;10.7;76.0
53940;BME280;39850;43.324;21.916;2022-09-20T20:47:08;994.0;;;10.7;76.0
53940;BME280;39850;43.324;21.916;2022-09-20T20:51:44;994.0;;;10.8;76.0
53940;BME280;39850;43.324;21.916;2022-09-20T20:56:29;994.0;;;10.8;76.0
53940;BME280;39850;43.324;21.916;2022-09-20T21:01:16;994.0;;;10.8;77.0
53940;BME280;39850;43.324;21.916;2022-09-20T21:05:55;994.0;;;10.8;77.0
53940;BME280;39850;43.324;21.916;2022-09-20T21:10:31;994.0;;;10.8;77.0
53940;BME280;39850;43.324;21.916;2022-09-20T21:15:10;994.0;;;10.8;77.0
53940;BME280;39850;43.324;21.916;2022-09-20T21:52:15;995.0;;;9.8;79.0
53940;BME280;39850;43.324;21.916;2022-09-20T21:56:52;995.0;;;9.8;79.0
53940;BME280;39850;43.324;21.916;2022-09-20T22:01:38;995.0;;;9.9;80.0
53940;BME280;39850;43.324;21.916;2022-09-20T22:06:25;995.0;;;9.9;80.0
53940;BME280;39850;43.324;21.916;2022-09-20T22:11:05;995.0;;;10.0;80.0
53940;BME280;39850;43.324;21.916;2022-09-20T22:15:42;995.0;;;10.0;80.0
53940;BME280;39850;43.324;21.916;2022-09-20T22:20:19;995.0;;;10.0;80.0
53940;BME280;39850;43.324;21.916;2022-09-20T22:24:56;995.0;;;10.0;80.0
53940;BME280;39850;43.324;21.916;2022-09-20T22:29:33;995.0;;;10.0;81.0
53940;BME280;39850;43.324;21.916;2022-09-20T22:34:19;995.0;;;10.0;81.0
53940;BME280;39850;43.324;21.916;2022-09-20T23:11:29;995.0;;;9.0;82.0
53940;BME280;39850;43.324;21.916;2022-09-20T23:16:26;995.0;;;9.0;82.0
53940;BME280;39850;43.324;21.916;2022-09-20T23:21:04;995.0;;;9.0;82.0
53940;BME280;39850;43.324;21.916;2022-09-20T23:25:40;995.0;;;9.0;82.0
53940;BME280;39850;43.324;21.916;2022-09-20T23:30:17;995.0;;;9.0;82.0
53940;BME280;39850;43.324;21.916;2022-09-20T23:34:54;995.0;;;9.0;82.0
53940;BME280;39850;43.324;21.916;2022-09-20T23:39:31;995.0;;;9.0;83.0
53940;BME280;39850;43.324;21.916;2022-09-20T23:44:09;995.0;;;9.0;83.0
53940;BME280;39850;43.324;21.916;2022-09-20T23:48:47;995.0;;;9.0;83.0
53940;BME280;39850;43.324;21.916;2022-09-20T23:53:24;995.0;;;9.1;84.0
53940;BME280;39850;43.324;21.916;2022-09-20T23:58:01;995.0;;;9.1;84.0
